createdAt,value
2019-05-02T00:00:02.600Z,997.61
2019-05-02T00:01:02.786Z,997.61
2019-05-02T00:02:03.195Z,997.60
2019-05-02T00:03:04.437Z,997.58
2019-05-02T00:04:04.342Z,997.52
2019-05-02T00:05:04.189Z,997.54
2019-05-02T00:06:07.408Z,997.50
2019-05-02T00:07:04.936Z,997.50
2019-05-02T00:08:04.076Z,997.43
2019-05-02T00:09:09.224Z,997.45
2019-05-02T00:10:05.408Z,997.48
2019-05-02T00:11:04.553Z,997.44
2019-05-02T00:12:04.716Z,997.43
2019-05-02T00:13:04.869Z,997.44
2019-05-02T00:14:05.055Z,997.42
2019-05-02T00:15:05.173Z,997.42
2019-05-02T00:16:09.227Z,997.39
2019-05-02T00:17:07.517Z,997.41
2019-05-02T00:18:05.765Z,997.41
2019-05-02T00:19:09.130Z,997.40
2019-05-02T00:20:08.131Z,997.36
2019-05-02T00:21:06.342Z,997.37
2019-05-02T00:22:06.475Z,997.39
2019-05-02T00:23:06.736Z,997.41
2019-05-02T00:24:06.878Z,997.37
2019-05-02T00:25:11.181Z,997.34
2019-05-02T00:26:08.302Z,997.33
2019-05-02T00:27:07.393Z,997.33
2019-05-02T00:28:07.807Z,997.33
2019-05-02T00:29:08.720Z,997.32
2019-05-02T00:30:07.885Z,997.37
2019-05-02T00:31:11.638Z,997.36
2019-05-02T00:32:09.180Z,997.38
2019-05-02T00:33:10.485Z,997.38
2019-05-02T00:34:08.454Z,997.32
2019-05-02T00:35:09.180Z,997.33
2019-05-02T00:36:08.832Z,997.35
2019-05-02T00:37:09.203Z,997.32
2019-05-02T00:38:09.225Z,997.36
2019-05-02T00:39:13.685Z,997.36
2019-05-02T00:40:11.593Z,997.39
2019-05-02T00:41:09.770Z,997.35
2019-05-02T00:42:12.752Z,997.37
2019-05-02T00:43:11.168Z,997.33
2019-05-02T00:44:11.105Z,997.33
2019-05-02T00:45:14.091Z,997.37
2019-05-02T00:46:11.587Z,997.31
2019-05-02T00:47:11.982Z,997.34
2019-05-02T00:48:12.680Z,997.31
2019-05-02T00:49:11.074Z,997.32
2019-05-02T00:50:12.686Z,997.29
2019-05-02T00:51:12.385Z,997.27
2019-05-02T00:52:11.548Z,997.28
2019-05-02T00:53:12.280Z,997.24
2019-05-02T00:54:13.017Z,997.23
2019-05-02T00:55:12.152Z,997.20
2019-05-02T00:56:13.333Z,997.22
2019-05-02T00:57:14.871Z,997.22
2019-05-02T00:58:14.617Z,997.23
2019-05-02T00:59:12.743Z,997.17
2019-05-02T01:00:13.384Z,997.19
2019-05-02T01:01:14.686Z,997.19
2019-05-02T01:02:13.692Z,997.11
2019-05-02T01:03:16.266Z,997.18
2019-05-02T01:04:14.648Z,997.15
2019-05-02T01:05:14.677Z,997.16
2019-05-02T01:06:15.410Z,997.17
2019-05-02T01:07:15.195Z,997.19
2019-05-02T01:08:14.326Z,997.16
2019-05-02T01:09:14.698Z,997.15
2019-05-02T01:10:17.217Z,997.16
2019-05-02T01:11:17.687Z,997.20
2019-05-02T01:12:25.865Z,997.15
2019-05-02T01:13:19.199Z,997.11
2019-05-02T01:14:17.199Z,997.17
2019-05-02T01:15:15.538Z,997.13
2019-05-02T01:16:19.191Z,997.13
2019-05-02T01:17:15.827Z,997.12
2019-05-02T01:18:16.024Z,997.11
2019-05-02T01:19:17.274Z,997.17
2019-05-02T01:20:16.297Z,997.17
2019-05-02T01:21:16.476Z,997.10
2019-05-02T01:22:17.305Z,997.17
2019-05-02T01:23:16.927Z,997.15
2019-05-02T01:24:17.142Z,997.14
2019-05-02T01:25:17.354Z,997.15
2019-05-02T01:26:17.530Z,997.14
2019-05-02T01:27:17.713Z,997.16
2019-05-02T01:28:18.873Z,997.09
2019-05-02T01:29:19.696Z,997.09
2019-05-02T01:30:18.318Z,997.05
2019-05-02T01:31:20.218Z,997.08
2019-05-02T01:32:19.184Z,997.13
2019-05-02T01:33:18.953Z,997.03
2019-05-02T01:34:19.355Z,997.06
2019-05-02T01:35:20.337Z,997.04
2019-05-02T01:36:19.468Z,997.04
2019-05-02T01:37:21.143Z,997.03
2019-05-02T01:38:20.774Z,997.02
2019-05-02T01:39:20.934Z,997.04
2019-05-02T01:40:20.084Z,997.02
2019-05-02T01:41:24.118Z,996.96
2019-05-02T01:42:21.361Z,996.96
2019-05-02T01:43:24.110Z,996.98
2019-05-02T01:44:20.849Z,996.97
2019-05-02T01:45:21.203Z,996.97
2019-05-02T01:46:24.062Z,996.97
2019-05-02T01:47:22.403Z,996.95
2019-05-02T01:48:22.199Z,996.96
2019-05-02T01:49:23.217Z,996.95
2019-05-02T01:50:22.038Z,996.94
2019-05-02T01:51:22.193Z,996.95
2019-05-02T01:52:23.773Z,996.96
2019-05-02T01:53:23.578Z,997.00
2019-05-02T01:54:22.708Z,996.87
2019-05-02T01:55:22.894Z,996.92
2019-05-02T01:56:23.041Z,996.94
2019-05-02T01:57:23.187Z,996.94
2019-05-02T01:58:23.349Z,996.90
2019-05-02T01:59:23.518Z,996.85
2019-05-02T02:00:23.718Z,996.86
2019-05-02T02:01:24.692Z,996.87
2019-05-02T02:02:28.130Z,996.83
2019-05-02T02:03:25.217Z,996.88
2019-05-02T02:04:24.347Z,996.93
2019-05-02T02:05:27.641Z,996.87
2019-05-02T02:06:26.697Z,996.87
2019-05-02T02:07:25.691Z,996.89
2019-05-02T02:08:27.373Z,996.83
2019-05-02T02:09:27.170Z,996.83
2019-05-02T02:10:25.391Z,996.81
2019-05-02T02:11:28.484Z,996.71
2019-05-02T02:12:27.678Z,996.72
2019-05-02T02:13:25.898Z,996.70
2019-05-02T02:14:26.033Z,996.67
2019-05-02T02:15:29.137Z,996.71
2019-05-02T02:16:27.396Z,996.70
2019-05-02T02:17:26.553Z,996.72
2019-05-02T02:18:27.461Z,996.73
2019-05-02T02:19:27.932Z,996.71
2019-05-02T02:20:27.168Z,996.72
2019-05-02T02:21:27.782Z,996.74
2019-05-02T02:22:28.450Z,996.78
2019-05-02T02:23:27.551Z,996.73
2019-05-02T02:24:27.707Z,996.67
2019-05-02T02:25:32.257Z,996.72
2019-05-02T02:26:29.112Z,996.72
2019-05-02T02:27:28.239Z,996.72
2019-05-02T02:28:32.058Z,996.70
2019-05-02T02:29:29.513Z,996.75
2019-05-02T02:30:28.737Z,996.75
2019-05-02T02:31:28.876Z,996.73
2019-05-02T02:32:29.205Z,996.77
2019-05-02T02:33:29.196Z,996.76
2019-05-02T02:34:32.067Z,996.76
2019-05-02T02:35:30.580Z,996.75
2019-05-02T02:36:34.250Z,996.72
2019-05-02T02:37:31.973Z,996.81
2019-05-02T02:38:33.643Z,996.77
2019-05-02T02:39:33.202Z,996.73
2019-05-02T02:40:33.777Z,996.77
2019-05-02T02:41:33.199Z,996.71
2019-05-02T02:42:34.111Z,996.70
2019-05-02T02:43:34.691Z,996.75
2019-05-02T02:44:33.929Z,996.70
2019-05-02T02:45:33.470Z,996.70
2019-05-02T02:46:37.975Z,996.69
2019-05-02T02:47:33.837Z,996.74
2019-05-02T02:48:33.837Z,996.72
2019-05-02T02:49:34.173Z,996.73
2019-05-02T02:50:36.840Z,996.67
2019-05-02T02:51:34.560Z,996.66
2019-05-02T02:52:37.690Z,996.66
2019-05-02T02:53:33.884Z,996.65
2019-05-02T02:54:36.705Z,996.69
2019-05-02T02:55:35.128Z,996.67
2019-05-02T02:56:34.322Z,996.66
2019-05-02T02:57:35.503Z,996.64
2019-05-02T02:58:43.986Z,996.65
2019-05-02T02:59:35.845Z,996.62
2019-05-02T03:00:34.057Z,996.58
2019-05-02T03:01:34.241Z,996.55
2019-05-02T03:02:34.394Z,996.58
2019-05-02T03:03:35.542Z,996.58
2019-05-02T03:04:35.722Z,996.62
2019-05-02T03:05:35.706Z,996.58
2019-05-02T03:06:38.388Z,996.58
2019-05-02T03:07:37.289Z,996.50
2019-05-02T03:08:45.229Z,996.56
2019-05-02T03:09:38.205Z,996.55
2019-05-02T03:10:39.966Z,996.55
2019-05-02T03:11:37.049Z,996.60
2019-05-02T03:12:41.577Z,996.57
2019-05-02T03:13:51.103Z,996.58
2019-05-02T03:14:40.838Z,996.58
2019-05-02T03:15:38.736Z,996.56
2019-05-02T03:16:46.145Z,996.59
2019-05-02T03:17:39.171Z,996.53
2019-05-02T03:18:40.558Z,996.54
2019-05-02T03:19:39.527Z,996.57
2019-05-02T03:20:40.615Z,996.55
2019-05-02T03:21:39.709Z,996.53
2019-05-02T03:22:41.908Z,996.51
2019-05-02T03:23:40.252Z,996.56
2019-05-02T03:24:43.913Z,996.53
2019-05-02T03:25:50.872Z,996.50
2019-05-02T03:26:40.745Z,996.55
2019-05-02T03:27:40.422Z,996.54
2019-05-02T03:28:40.248Z,996.55
2019-05-02T03:29:43.686Z,996.46
2019-05-02T03:30:40.570Z,996.49
2019-05-02T03:31:39.717Z,996.51
2019-05-02T03:32:39.877Z,996.51
2019-05-02T03:33:55.154Z,996.52
2019-05-02T03:34:48.146Z,996.52
2019-05-02T03:35:48.438Z,996.51
2019-05-02T03:36:42.608Z,996.51
2019-05-02T03:37:45.012Z,996.51
2019-05-02T03:38:43.218Z,996.48
2019-05-02T03:39:41.084Z,996.43
2019-05-02T03:40:41.466Z,996.55
2019-05-02T03:41:42.363Z,996.53
2019-05-02T03:42:44.844Z,996.59
2019-05-02T03:43:43.833Z,996.56
2019-05-02T03:44:41.943Z,996.55
2019-05-02T03:45:43.158Z,996.55
2019-05-02T03:46:43.278Z,996.53
2019-05-02T03:47:43.988Z,996.52
2019-05-02T03:48:43.691Z,996.50
2019-05-02T03:49:48.983Z,996.43
2019-05-02T03:50:44.989Z,996.41
2019-05-02T03:51:43.196Z,996.44
2019-05-02T03:52:46.307Z,996.45
2019-05-02T03:53:44.540Z,996.42
2019-05-02T03:54:49.967Z,996.36
2019-05-02T03:55:45.949Z,996.40
2019-05-02T03:56:51.277Z,996.38
2019-05-02T03:57:45.159Z,996.36
2019-05-02T03:58:48.528Z,996.32
2019-05-02T03:59:46.567Z,996.32
2019-05-02T04:00:45.235Z,996.33
2019-05-02T04:01:44.854Z,996.32
2019-05-02T04:02:45.021Z,996.36
2019-05-02T04:03:45.190Z,996.26
2019-05-02T04:04:45.400Z,996.31
2019-05-02T04:05:45.598Z,996.29
2019-05-02T04:06:45.817Z,996.31
2019-05-02T04:07:46.031Z,996.33
2019-05-02T04:08:46.128Z,996.33
2019-05-02T04:09:46.329Z,996.32
2019-05-02T04:10:52.946Z,996.29
2019-05-02T04:11:47.745Z,996.28
2019-05-02T04:12:53.232Z,996.25
2019-05-02T04:13:47.001Z,996.24
2019-05-02T04:14:47.174Z,996.28
2019-05-02T04:15:47.336Z,996.27
2019-05-02T04:16:48.623Z,996.21
2019-05-02T04:17:49.709Z,996.21
2019-05-02T04:18:54.502Z,996.24
2019-05-02T04:19:50.029Z,996.25
2019-05-02T04:20:49.604Z,996.23
2019-05-02T04:21:52.652Z,996.27
2019-05-02T04:22:50.919Z,996.27
2019-05-02T04:23:48.788Z,996.26
2019-05-02T04:24:54.540Z,996.22
2019-05-02T04:25:51.169Z,996.22
2019-05-02T04:26:54.027Z,996.27
2019-05-02T04:27:52.203Z,996.29
2019-05-02T04:28:51.608Z,996.20
2019-05-02T04:29:51.001Z,996.20
2019-05-02T04:30:51.209Z,996.22
2019-05-02T04:31:52.250Z,996.22
2019-05-02T04:32:55.792Z,996.18
2019-05-02T04:33:51.832Z,996.24
2019-05-02T04:34:55.622Z,996.29
2019-05-02T04:35:53.186Z,996.27
2019-05-02T04:36:59.689Z,996.26
2019-05-02T04:37:53.541Z,996.31
2019-05-02T04:38:52.629Z,996.24
2019-05-02T04:39:57.796Z,996.20
2019-05-02T04:40:54.129Z,996.22
2019-05-02T04:41:52.364Z,996.25
2019-05-02T04:43:05.468Z,996.20
2019-05-02T04:43:57.525Z,996.24
2019-05-02T04:45:14.025Z,996.19
2019-05-02T04:45:57.441Z,996.22
2019-05-02T04:47:02.621Z,996.22
2019-05-02T04:48:01.010Z,996.12
2019-05-02T04:48:58.772Z,996.14
2019-05-02T04:49:53.777Z,996.17
2019-05-02T04:50:59.419Z,996.15
2019-05-02T04:52:01.906Z,996.15
2019-05-02T04:52:59.259Z,996.13
2019-05-02T04:53:54.450Z,996.12
2019-05-02T04:55:08.341Z,996.09
2019-05-02T04:56:01.829Z,996.11
2019-05-02T04:56:59.073Z,996.15
2019-05-02T04:57:58.761Z,996.11
2019-05-02T04:59:01.181Z,996.11
2019-05-02T05:00:05.913Z,996.10
2019-05-02T05:01:01.572Z,996.16
2019-05-02T05:02:00.581Z,996.12
2019-05-02T05:02:58.037Z,996.12
2019-05-02T05:04:02.811Z,996.08
2019-05-02T05:04:58.708Z,996.18
2019-05-02T05:06:06.820Z,996.14
2019-05-02T05:07:01.122Z,996.18
2019-05-02T05:07:58.733Z,996.13
2019-05-02T05:08:58.461Z,996.15
2019-05-02T05:10:03.034Z,996.15
2019-05-02T05:11:00.243Z,996.15
2019-05-02T05:11:59.067Z,996.18
2019-05-02T05:12:59.005Z,996.11
2019-05-02T05:14:00.313Z,996.13
2019-05-02T05:15:00.469Z,996.02
2019-05-02T05:16:02.984Z,996.03
2019-05-02T05:16:59.933Z,996.00
2019-05-02T05:17:59.036Z,995.99
2019-05-02T05:19:00.074Z,996.03
2019-05-02T05:20:05.232Z,996.02
2019-05-02T05:21:00.527Z,996.02
2019-05-02T05:22:04.737Z,996.02
2019-05-02T05:23:01.986Z,996.03
2019-05-02T05:24:01.469Z,996.12
2019-05-02T05:25:01.345Z,996.06
2019-05-02T05:26:03.687Z,996.09
2019-05-02T05:27:01.801Z,996.13
2019-05-02T05:28:05.950Z,996.12
2019-05-02T05:29:02.162Z,996.08
2019-05-02T05:30:08.484Z,996.11
2019-05-02T05:31:03.416Z,996.20
2019-05-02T05:32:05.613Z,996.11
2019-05-02T05:33:03.733Z,996.10
2019-05-02T05:34:01.947Z,996.11
2019-05-02T05:35:03.398Z,996.11
2019-05-02T05:36:05.220Z,996.11
2019-05-02T05:37:03.776Z,996.12
2019-05-02T05:38:04.714Z,996.16
2019-05-02T05:39:07.261Z,996.15
2019-05-02T05:40:05.230Z,996.12
2019-05-02T05:41:08.173Z,996.09
2019-05-02T05:42:04.740Z,996.11
2019-05-02T05:43:12.120Z,996.15
2019-05-02T05:44:07.830Z,996.19
2019-05-02T05:45:08.717Z,996.09
2019-05-02T05:46:10.710Z,996.13
2019-05-02T05:47:07.369Z,996.21
2019-05-02T05:48:04.737Z,996.15
2019-05-02T05:49:04.409Z,996.09
2019-05-02T05:50:05.209Z,996.09
2019-05-02T05:51:07.260Z,996.14
2019-05-02T05:52:04.912Z,996.10
2019-05-02T05:53:05.128Z,996.06
2019-05-02T05:54:05.308Z,996.12
2019-05-02T05:55:07.666Z,996.15
2019-05-02T05:56:07.795Z,996.09
2019-05-02T05:57:07.587Z,996.08
2019-05-02T05:58:13.169Z,996.14
2019-05-02T05:59:08.285Z,996.10
2019-05-02T06:00:11.848Z,996.11
2019-05-02T06:01:10.281Z,996.11
2019-05-02T06:02:12.670Z,996.01
2019-05-02T06:03:13.928Z,995.98
2019-05-02T06:04:09.257Z,996.01
2019-05-02T06:05:07.957Z,996.03
2019-05-02T06:06:10.260Z,995.99
2019-05-02T06:07:08.890Z,996.03
2019-05-02T06:08:08.722Z,996.01
2019-05-02T06:09:08.208Z,996.03
2019-05-02T06:10:09.870Z,996.00
2019-05-02T06:11:08.485Z,996.02
2019-05-02T06:12:08.635Z,996.02
2019-05-02T06:13:10.971Z,996.01
2019-05-02T06:14:09.962Z,995.96
2019-05-02T06:15:09.222Z,996.00
2019-05-02T06:16:10.420Z,995.97
2019-05-02T06:17:10.525Z,995.95
2019-05-02T06:18:09.705Z,995.98
2019-05-02T06:19:13.032Z,996.03
2019-05-02T06:20:10.982Z,996.00
2019-05-02T06:21:10.778Z,995.94
2019-05-02T06:22:16.053Z,995.99
2019-05-02T06:23:11.454Z,996.03
2019-05-02T06:24:10.998Z,995.94
2019-05-02T06:25:11.730Z,995.94
2019-05-02T06:26:13.655Z,995.98
2019-05-02T06:27:12.090Z,995.94
2019-05-02T06:28:11.196Z,995.95
2019-05-02T06:29:13.094Z,995.96
2019-05-02T06:30:13.592Z,995.93
2019-05-02T06:31:11.804Z,995.90
2019-05-02T06:32:14.034Z,995.85
2019-05-02T06:33:14.172Z,995.86
2019-05-02T06:34:12.407Z,995.84
2019-05-02T06:35:17.116Z,995.85
2019-05-02T06:36:13.782Z,995.81
2019-05-02T06:37:13.581Z,995.79
2019-05-02T06:38:14.061Z,995.82
2019-05-02T06:39:13.282Z,995.77
2019-05-02T06:40:13.409Z,995.77
2019-05-02T06:41:16.095Z,995.75
2019-05-02T06:42:15.805Z,995.72
2019-05-02T06:43:13.894Z,995.76
2019-05-02T06:44:18.461Z,995.77
2019-05-02T06:45:15.262Z,995.76
2019-05-02T06:46:16.588Z,995.76
2019-05-02T06:47:16.588Z,995.75
2019-05-02T06:48:17.661Z,995.73
2019-05-02T06:49:15.956Z,995.75
2019-05-02T06:50:15.172Z,995.72
2019-05-02T06:51:19.599Z,995.67
2019-05-02T06:52:17.541Z,995.75
2019-05-02T06:53:16.228Z,995.73
2019-05-02T06:54:17.941Z,995.70
2019-05-02T06:55:18.192Z,995.69
2019-05-02T06:56:16.458Z,995.72
2019-05-02T06:57:19.155Z,995.65
2019-05-02T06:58:18.851Z,995.70
2019-05-02T06:59:18.555Z,995.64
2019-05-02T07:00:18.296Z,995.65
2019-05-02T07:01:21.323Z,995.59
2019-05-02T07:02:19.231Z,995.68
2019-05-02T07:03:17.716Z,995.62
2019-05-02T07:04:22.911Z,995.57
2019-05-02T07:05:18.990Z,995.49
2019-05-02T07:06:18.420Z,995.50
2019-05-02T07:07:18.440Z,995.53
2019-05-02T07:08:18.560Z,995.50
2019-05-02T07:09:18.733Z,995.48
2019-05-02T07:10:20.186Z,995.55
2019-05-02T07:11:21.095Z,995.52
2019-05-02T07:12:19.320Z,995.54
2019-05-02T07:13:19.474Z,995.49
2019-05-02T07:14:23.682Z,995.55
2019-05-02T07:15:21.783Z,995.51
2019-05-02T07:16:37.178Z,995.53
2019-05-02T07:17:26.651Z,995.58
2019-05-02T07:18:21.329Z,995.52
2019-05-02T07:19:21.589Z,995.50
2019-05-02T07:20:22.664Z,995.51
2019-05-02T07:21:23.620Z,995.56
2019-05-02T07:22:22.099Z,995.51
2019-05-02T07:23:21.216Z,995.52
2019-05-02T07:24:25.305Z,995.51
2019-05-02T07:25:23.577Z,995.54
2019-05-02T07:26:23.317Z,995.53
2019-05-02T07:27:21.982Z,995.48
2019-05-02T07:28:23.990Z,995.56
2019-05-02T07:29:23.385Z,995.52
2019-05-02T07:30:22.651Z,995.56
2019-05-02T07:31:22.805Z,995.50
2019-05-02T07:32:24.680Z,995.57
2019-05-02T07:33:24.745Z,995.61
2019-05-02T07:34:24.231Z,995.59
2019-05-02T07:35:24.429Z,995.56
2019-05-02T07:36:24.564Z,995.58
2019-05-02T07:37:23.787Z,995.57
2019-05-02T07:38:25.710Z,995.61
2019-05-02T07:39:25.056Z,995.63
2019-05-02T07:40:24.298Z,995.63
2019-05-02T07:41:28.958Z,995.59
2019-05-02T07:42:25.606Z,995.46
2019-05-02T07:43:24.738Z,995.52
2019-05-02T07:44:27.197Z,995.56
2019-05-02T07:45:27.743Z,995.54
2019-05-02T07:46:25.348Z,995.60
2019-05-02T07:47:28.564Z,995.59
2019-05-02T07:48:25.693Z,995.57
2019-05-02T07:49:26.795Z,995.53
2019-05-02T07:50:28.010Z,995.55
2019-05-02T07:51:26.190Z,995.53
2019-05-02T07:52:28.925Z,995.53
2019-05-02T07:53:27.482Z,995.54
2019-05-02T07:54:26.794Z,995.52
2019-05-02T07:55:30.513Z,995.53
2019-05-02T07:56:26.967Z,995.53
2019-05-02T07:57:30.512Z,995.49
2019-05-02T07:58:29.290Z,995.51
2019-05-02T07:59:27.383Z,995.51
2019-05-02T08:00:27.535Z,995.52
2019-05-02T08:01:27.676Z,995.48
2019-05-02T08:02:27.821Z,995.49
2019-05-02T08:03:29.461Z,995.47
2019-05-02T08:04:30.101Z,995.45
2019-05-02T08:05:28.297Z,995.47
2019-05-02T08:06:35.018Z,995.43
2019-05-02T08:07:34.161Z,995.46
2019-05-02T08:08:31.786Z,995.43
2019-05-02T08:09:29.007Z,995.42
2019-05-02T08:10:29.169Z,995.46
2019-05-02T08:11:32.195Z,995.51
2019-05-02T08:12:31.466Z,995.43
2019-05-02T08:13:31.453Z,995.44
2019-05-02T08:14:34.634Z,995.46
2019-05-02T08:15:32.745Z,995.47
2019-05-02T08:16:30.083Z,995.45
2019-05-02T08:17:30.242Z,995.49
2019-05-02T08:18:31.627Z,995.46
2019-05-02T08:19:30.636Z,995.46
2019-05-02T08:20:30.771Z,995.44
2019-05-02T08:21:32.501Z,995.49
2019-05-02T08:22:32.743Z,995.46
2019-05-02T08:23:31.378Z,995.48
2019-05-02T08:24:32.979Z,995.52
2019-05-02T08:25:33.639Z,995.47
2019-05-02T08:26:31.888Z,995.47
2019-05-02T08:27:34.553Z,995.52
2019-05-02T08:28:33.315Z,995.46
2019-05-02T08:29:32.432Z,995.45
2019-05-02T08:30:35.361Z,995.47
2019-05-02T08:31:34.824Z,995.48
2019-05-02T08:32:33.047Z,995.49
2019-05-02T08:33:34.873Z,995.42
2019-05-02T08:34:34.325Z,995.40
2019-05-02T08:35:33.542Z,995.48
2019-05-02T08:36:33.696Z,995.41
2019-05-02T08:37:35.303Z,995.41
2019-05-02T08:38:36.065Z,995.46
2019-05-02T08:39:35.222Z,995.42
2019-05-02T08:40:34.504Z,995.43
2019-05-02T08:41:34.634Z,995.50
2019-05-02T08:42:34.809Z,995.54
2019-05-02T08:43:34.973Z,995.58
2019-05-02T08:44:35.753Z,995.57
2019-05-02T08:45:38.142Z,995.59
2019-05-02T08:46:36.497Z,995.55
2019-05-02T08:47:35.597Z,995.60
2019-05-02T08:48:36.453Z,995.59
2019-05-02T08:49:37.979Z,995.53
2019-05-02T08:50:36.239Z,995.53
2019-05-02T08:51:36.395Z,995.55
2019-05-02T08:52:36.917Z,995.58
2019-05-02T08:53:39.275Z,995.52
2019-05-02T08:54:36.874Z,995.54
2019-05-02T08:55:41.384Z,995.49
2019-05-02T08:56:38.195Z,995.55
2019-05-02T08:57:37.432Z,995.55
2019-05-02T08:58:37.624Z,995.57
2019-05-02T08:59:37.791Z,995.55
2019-05-02T09:00:39.536Z,995.59
2019-05-02T09:01:38.204Z,995.57
2019-05-02T09:02:41.652Z,995.53
2019-05-02T09:03:54.613Z,995.53
2019-05-02T09:04:40.825Z,995.50
2019-05-02T09:05:45.316Z,995.51
2019-05-02T09:06:41.103Z,995.48
2019-05-02T09:07:42.587Z,995.53
2019-05-02T09:08:40.436Z,995.62
2019-05-02T09:09:40.254Z,995.56
2019-05-02T09:10:42.113Z,995.58
2019-05-02T09:11:41.500Z,995.56
2019-05-02T09:12:45.322Z,995.54
2019-05-02T09:13:42.213Z,995.51
2019-05-02T09:14:42.539Z,995.50
2019-05-02T09:15:49.786Z,995.54
2019-05-02T09:16:42.879Z,995.52
2019-05-02T09:17:44.616Z,995.47
2019-05-02T09:18:50.685Z,995.46
2019-05-02T09:19:43.360Z,995.45
2019-05-02T09:20:47.076Z,995.42
2019-05-02T09:21:43.741Z,995.45
2019-05-02T09:22:46.489Z,995.50
2019-05-02T09:23:43.992Z,995.48
2019-05-02T09:24:44.462Z,995.44
2019-05-02T09:25:43.368Z,995.47
2019-05-02T09:26:42.687Z,995.43
2019-05-02T09:27:43.776Z,995.48
2019-05-02T09:28:43.278Z,995.46
2019-05-02T09:29:45.912Z,995.50
2019-05-02T09:30:46.682Z,995.41
2019-05-02T09:31:46.024Z,995.47
2019-05-02T09:32:44.737Z,995.50
2019-05-02T09:33:46.847Z,995.42
2019-05-02T09:34:45.127Z,995.45
2019-05-02T09:35:44.265Z,995.43
2019-05-02T09:36:44.446Z,995.46
2019-05-02T09:37:44.632Z,995.43
2019-05-02T09:38:48.658Z,995.44
2019-05-02T09:39:46.005Z,995.44
2019-05-02T09:40:47.199Z,995.44
2019-05-02T09:41:47.284Z,995.40
2019-05-02T09:42:47.570Z,995.32
2019-05-02T09:43:47.771Z,995.45
2019-05-02T09:44:47.947Z,995.34
2019-05-02T09:45:48.124Z,995.34
2019-05-02T09:46:47.483Z,995.35
2019-05-02T09:47:59.552Z,995.33
2019-05-02T09:48:48.828Z,995.26
2019-05-02T09:49:49.117Z,995.25
2019-05-02T09:50:48.756Z,995.29
2019-05-02T09:51:50.271Z,995.20
2019-05-02T09:52:52.241Z,995.21
2019-05-02T09:53:47.661Z,995.18
2019-05-02T09:54:47.880Z,995.24
2019-05-02T09:55:50.207Z,995.19
2019-05-02T09:56:52.280Z,995.18
2019-05-02T09:57:48.444Z,995.26
2019-05-02T09:58:49.490Z,995.19
2019-05-02T09:59:50.513Z,995.14
2019-05-02T10:00:52.329Z,995.12
2019-05-02T10:01:49.239Z,995.12
2019-05-02T10:02:49.402Z,995.13
2019-05-02T10:03:51.719Z,995.19
2019-05-02T10:04:49.818Z,995.17
2019-05-02T10:05:52.171Z,995.18
2019-05-02T10:06:52.296Z,995.06
2019-05-02T10:07:52.436Z,995.15
2019-05-02T10:08:51.972Z,995.09
2019-05-02T10:09:51.896Z,995.10
2019-05-02T10:10:52.251Z,995.07
2019-05-02T10:11:52.642Z,995.00
2019-05-02T10:12:52.368Z,995.03
2019-05-02T10:13:51.937Z,994.96
2019-05-02T10:14:52.793Z,994.96
2019-05-02T10:15:52.940Z,994.92
2019-05-02T10:16:52.955Z,994.90
2019-05-02T10:17:53.111Z,994.93
2019-05-02T10:18:52.488Z,994.84
2019-05-02T10:19:56.554Z,994.84
2019-05-02T10:20:53.575Z,994.76
2019-05-02T10:21:56.213Z,994.72
2019-05-02T10:22:54.753Z,994.77
2019-05-02T10:23:59.081Z,994.74
2019-05-02T10:24:55.269Z,994.76
2019-05-02T10:25:53.522Z,994.76
2019-05-02T10:26:55.225Z,994.75
2019-05-02T10:27:55.827Z,994.72
2019-05-02T10:28:54.063Z,994.74
2019-05-02T10:29:57.075Z,994.77
2019-05-02T10:30:56.695Z,994.69
2019-05-02T10:31:55.496Z,994.60
2019-05-02T10:32:57.253Z,994.68
2019-05-02T10:33:55.746Z,994.61
2019-05-02T10:34:56.767Z,994.57
2019-05-02T10:35:56.229Z,994.62
2019-05-02T10:36:58.861Z,994.53
2019-05-02T10:37:56.514Z,994.52
2019-05-02T10:38:59.245Z,994.55
2019-05-02T10:39:57.290Z,994.47
2019-05-02T10:41:01.620Z,994.45
2019-05-02T10:41:58.074Z,994.41
2019-05-02T10:42:57.780Z,994.46
2019-05-02T10:43:59.339Z,994.37
2019-05-02T10:44:57.748Z,994.38
2019-05-02T10:45:56.896Z,994.27
2019-05-02T10:46:57.057Z,994.38
2019-05-02T10:47:57.283Z,994.26
2019-05-02T10:48:57.336Z,994.23
2019-05-02T10:49:57.498Z,994.28
2019-05-02T10:50:57.648Z,994.27
2019-05-02T10:51:57.814Z,994.28
2019-05-02T10:52:58.022Z,994.13
2019-05-02T10:53:58.205Z,994.16
2019-05-02T10:54:58.382Z,994.07
2019-05-02T10:55:58.546Z,994.05
2019-05-02T10:56:58.727Z,993.95
2019-05-02T10:57:58.926Z,994.00
2019-05-02T10:58:59.094Z,993.99
2019-05-02T10:59:59.240Z,994.08
2019-05-02T11:00:59.391Z,994.05
2019-05-02T11:01:59.527Z,994.05
2019-05-02T11:02:59.721Z,994.05
2019-05-02T11:04:02.048Z,994.01
2019-05-02T11:04:59.993Z,994.00
2019-05-02T11:06:03.650Z,994.01
2019-05-02T11:07:02.698Z,994.01
2019-05-02T11:08:06.088Z,993.96
2019-05-02T11:09:03.115Z,993.92
2019-05-02T11:10:05.064Z,993.88
2019-05-02T11:11:05.662Z,993.88
2019-05-02T11:12:03.284Z,993.84
2019-05-02T11:13:01.920Z,993.84
2019-05-02T11:14:05.627Z,993.82
2019-05-02T11:15:02.913Z,993.82
2019-05-02T11:16:02.021Z,993.78
2019-05-02T11:17:02.778Z,993.77
2019-05-02T11:18:02.383Z,993.74
2019-05-02T11:19:03.533Z,993.71
2019-05-02T11:20:02.634Z,993.71
2019-05-02T11:21:06.761Z,993.74
2019-05-02T11:22:04.975Z,993.71
2019-05-02T11:23:03.160Z,993.68
2019-05-02T11:24:03.300Z,993.61
2019-05-02T11:25:03.510Z,993.62
2019-05-02T11:26:03.677Z,993.59
2019-05-02T11:27:03.802Z,993.63
2019-05-02T11:28:07.162Z,993.53
2019-05-02T11:29:05.130Z,993.59
2019-05-02T11:30:04.364Z,993.54
2019-05-02T11:31:06.879Z,993.52
2019-05-02T11:32:05.663Z,993.53
2019-05-02T11:33:04.821Z,993.39
2019-05-02T11:34:05.009Z,993.46
2019-05-02T11:35:05.207Z,993.30
2019-05-02T11:36:05.375Z,993.34
2019-05-02T11:37:06.536Z,993.33
2019-05-02T11:38:05.671Z,993.30
2019-05-02T11:39:15.143Z,993.33
2019-05-02T11:40:08.481Z,993.29
2019-05-02T11:41:06.171Z,993.29
2019-05-02T11:42:06.324Z,993.34
2019-05-02T11:43:06.900Z,993.29
2019-05-02T11:44:07.605Z,993.32
2019-05-02T11:45:06.762Z,993.29
2019-05-02T11:46:07.340Z,993.31
2019-05-02T11:47:08.121Z,993.24
2019-05-02T11:48:09.340Z,993.23
2019-05-02T11:49:08.397Z,993.23
2019-05-02T11:50:07.539Z,993.20
2019-05-02T11:51:12.725Z,993.20
2019-05-02T11:52:08.871Z,993.12
2019-05-02T11:53:22.286Z,993.14
2019-05-02T11:54:09.419Z,993.13
2019-05-02T11:55:09.287Z,993.15
2019-05-02T11:56:10.907Z,993.19
2019-05-02T11:57:08.659Z,993.16
2019-05-02T11:58:10.268Z,993.04
2019-05-02T11:59:08.916Z,992.95
2019-05-02T12:00:09.140Z,993.03
2019-05-02T12:01:09.346Z,993.11
2019-05-02T12:02:13.866Z,993.09
2019-05-02T12:03:12.551Z,992.99
2019-05-02T12:04:14.994Z,992.95
2019-05-02T12:05:12.774Z,992.97
2019-05-02T12:06:12.720Z,993.05
2019-05-02T12:07:12.708Z,993.05
2019-05-02T12:08:12.156Z,993.03
2019-05-02T12:09:13.334Z,992.99
2019-05-02T12:10:12.500Z,993.00
2019-05-02T12:11:14.012Z,992.90
2019-05-02T12:12:15.570Z,992.88
2019-05-02T12:13:15.977Z,992.85
2019-05-02T12:14:12.457Z,992.76
2019-05-02T12:15:12.063Z,992.75
2019-05-02T12:16:12.726Z,992.71
2019-05-02T12:17:12.213Z,992.71
2019-05-02T12:18:12.998Z,992.73
2019-05-02T12:19:14.982Z,992.69
2019-05-02T12:20:12.284Z,992.66
2019-05-02T12:21:13.290Z,992.60
2019-05-02T12:22:16.729Z,992.64
2019-05-02T12:23:13.800Z,992.67
2019-05-02T12:24:12.942Z,992.62
2019-05-02T12:25:13.796Z,992.56
2019-05-02T12:26:14.311Z,992.53
2019-05-02T12:27:13.450Z,992.64
2019-05-02T12:28:14.307Z,992.62
2019-05-02T12:29:13.814Z,992.62
2019-05-02T12:30:13.946Z,992.67